1963 Tropical Cyclone NOT_NAMED (1963019S13124)


IBTrACS version v04r00. Visit IBTrACS website for data access.
Please direct all questions to the IBTrACS Q and A forum

Storm track - Intensity - Wind Radii - Intensity Data - Source Data - All data

Summary Information

Storm ID 1963019S13124
Start Jan 18 23Z
Max Intensity 55 kt (Jan 26 00Z), 985 mb (Jan 25 22Z)
End Jan 30 01Z
ATCF IDs ,SH191963
Track status Best track data.

Storm track plot

Map of storm track

Intensity plots

Map of storm track

Radial wind information

No radial wind information for this storm


Position and Intensity Table

BASIN ISO_TIME_________ NATURE LAT LON WMO PRES BOM PRES NEUMANN WIND NEUMANN PRES
degrees north degrees east mb mb kts mb
SI 1963-01-18 23:00:00 NR -12.80 124.00
SI 1963-01-19 00:00:00 TS -12.80 123.92
SI 01:00:00 TS -12.84 123.88 1001 1001
SI 03:00:00 TS -12.88 123.78
SI 06:00:00 TS -12.92 123.67 25 1001
SI 09:00:00 TS -12.94 123.59 25 1001
SI 11:00:00 TS -12.95 123.54 25 1001
SI 12:00:00 TS -12.97 123.52 25 1001
SI 15:00:00 TS -13.01 123.43 25 1001
SI 18:00:00 TS -13.05 123.34 25 1001
SI 21:00:00 TS -13.08 123.24 25 1001
SI 23:00:00 TS -13.10 123.16 25 1001
SI 1963-01-20 00:00:00 TS -13.12 123.12 25 1001
SI 01:00:00 TS -13.15 123.07 1001 1001 25 1000
SI 03:00:00 TS -13.21 122.95 27 1000
SI 06:00:00 TS -13.32 122.76 30 1000
SI 09:00:00 TS -13.41 122.56 30 1000
SI 11:00:00 TS -13.49 122.44 30 1000
SI 12:00:00 TS -13.53 122.39 30 1000
SI 15:00:00 TS -13.71 122.27 30 1000
SI 18:00:00 TS -13.90 122.16 30 1000
SI 21:00:00 TS -14.10 122.06 30 1000
SI 23:00:00 TS -14.24 122.00 30 1000
SI 1963-01-21 00:00:00 TS -14.31 121.97 30 1000
SI 01:00:00 TS -14.37 121.94 1000 1000 30 1000
SI 03:00:00 TS -14.51 121.88 30 1000
SI 06:00:00 TS -14.72 121.81 30 1000
SI 09:00:00 TS -14.92 121.75 30 1000
SI 11:00:00 TS -15.05 121.72 30 1000
SI 12:00:00 TS -15.10 121.71 30 1000
SI 15:00:00 TS -15.26 121.71 30 1000
SI 18:00:00 TS -15.41 121.72 30 1000
SI 21:00:00 TS -15.56 121.74 30 1000
SI 23:00:00 TS -15.67 121.75 30 1000
SI 1963-01-22 00:00:00 TS -15.72 121.75 30 1000
SI 01:00:00 TS -15.79 121.76 1000 1000 30 999
SI 03:00:00 TS -15.92 121.77 30 999
SI 06:00:00 TS -16.11 121.74 30 999
SI 09:00:00 TS -16.29 121.67 30 999
SI 11:00:00 TS -16.39 121.58 30 999
SI 12:00:00 TS -16.43 121.52 30 999
SI 15:00:00 TS -16.54 121.31 32 998
SI 18:00:00 TS -16.62 121.06 35 998
SI 21:00:00 TS -16.70 120.81 35 998
SI 23:00:00 TS -16.75 120.64 35 998
SI 1963-01-23 00:00:00 TS -16.78 120.56 35 998
SI 01:00:00 TS -16.80 120.49 998 998 35 997
SI 03:00:00 TS -16.86 120.34 35 997
SI 06:00:00 TS -16.94 120.14 35 997
SI 09:00:00 TS -17.04 119.92 35 996
SI 11:00:00 TS -17.11 119.77 35 996
SI 12:00:00 TS -17.15 119.71 35 996
SI 15:00:00 TS -17.29 119.53 35 996
SI 18:00:00 TS -17.45 119.34 35 996
SI 21:00:00 TS -17.62 119.12 37 995
SI 22:00:00 TS -17.68 119.04 998 998 38 995
SI 23:00:00 TS -17.74 118.95 998 39 995
SI 1963-01-24 00:00:00 TS -17.82 118.86 998 40 995
SI 01:00:00 TS -17.89 118.75 998 998 40 994
SI 03:00:00 TS -18.03 118.47 997 40 994
SI 04:00:00 TS -18.10 118.32 997 997 40 994
SI 06:00:00 TS -18.25 118.01 997 40 994
SI 07:00:00 TS -18.33 117.84 997 997 40 993
SI 09:00:00 TS -18.49 117.51 997 42 993
SI 10:00:00 TS -18.56 117.34 997 997 43 992
SI 11:00:00 TS -18.63 117.17 996 44 992
SI 12:00:00 TS -18.70 117.00 996 45 992
SI 15:00:00 TS -18.86 116.52 996 45 991
SI 16:00:00 TS -18.90 116.36 996 996 45 991
SI 18:00:00 TS -18.98 116.03 996 45 991
SI 19:00:00 TS -19.02 115.87 996 996 45 990
SI 21:00:00 TS -19.09 115.53 995 45 990
SI 22:00:00 TS -19.13 115.36 995 995 45 990
SI 23:00:00 TS -19.17 115.19 995 45 990
SI 1963-01-25 00:00:00 TS -19.23 115.02 995 45 990
SI 01:00:00 TS -19.29 114.86 995 995 45 989
SI 03:00:00 TS -19.44 114.53 995 47 989
SI 04:00:00 TS -19.52 114.37 995 995 48 989
SI 06:00:00 TS -19.69 114.06 994 50 989
SI 07:00:00 TS -19.78 113.91 994 994 50 988
SI 09:00:00 TS -19.96 113.61 994 50 988
SI 10:00:00 TS -20.06 113.47 994 994 50 988
SI 11:00:00 TS -20.17 113.34 994 50 988
SI 12:00:00 TS -20.28 113.21 994 50 988
SI 15:00:00 TS -20.71 112.86 994 50 987
SI 16:00:00 TS -20.86 112.76 994 994 50 987
SI 18:00:00 TS -21.15 112.57 993 50 987
SI 19:00:00 TS -21.29 112.47 993 993 50 986
SI 21:00:00 TS -21.55 112.30 993 52 986
SI 22:00:00 TS -21.67 112.23 993 993 53 985
SI 23:00:00 TS -21.78 112.16 993 54 985
SI 1963-01-26 00:00:00 TS -21.88 112.09 993 55 985
SI 01:00:00 TS -21.97 112.03 993 993 55 985
SI 03:00:00 TS -22.09 111.94 992 55 985
SI 04:00:00 TS -22.14 111.91 992 992 55 985
SI 06:00:00 TS -22.23 111.84 992 55 985
SI 07:00:00 TS -22.27 111.81 992 992 55 985
SI 09:00:00 TS -22.35 111.76 992 55 985
SI 10:00:00 TS -22.38 111.73 992 992 55 985
SI 11:00:00 TS -22.43 111.71 990 55 985
SI 12:00:00 TS -22.47 111.69 988 55 986
SI 13:00:00 TS -22.52 111.66 987 987 54 986
SI 15:00:00 TS -22.61 111.58 989 52 987
SI 16:00:00 TS -22.66 111.54 991 991 51 987
SI 18:00:00 TS -22.76 111.48 991 50 988
SI 19:00:00 TS -22.81 111.45 991 991 50 988
SI 21:00:00 TS -22.91 111.38 991 50 988
SI 22:00:00 TS -22.97 111.34 991 991 50 988
SI 23:00:00 TS -23.03 111.31 990 50 988
SI 1963-01-27 00:00:00 TS -23.09 111.28 990 50 989
SI 01:00:00 TS -23.16 111.25 990 990 49 989
SI 03:00:00 TS -23.30 111.22 990 47 989
SI 04:00:00 TS -23.38 111.21 991 991 46 989
SI 06:00:00 TS -23.54 111.21 991 45 990
SI 07:00:00 TS -23.63 111.22 992 992 45 990
SI 09:00:00 TS -23.79 111.25 992 45 991
SI 10:00:00 TS -23.88 111.28 993 993 45 991
SI 11:00:00 TS -23.96 111.31 993 45 991
SI 12:00:00 TS -24.03 111.34 993 45 992
SI 15:00:00 TS -24.23 111.46 993 42 992
SI 16:00:00 TS -24.30 111.50 994 994 41 992
SI 18:00:00 TS -24.43 111.58 994 40 993
SI 19:00:00 TS -24.51 111.62 995 995 40 993
SI 21:00:00 TS -24.67 111.70 995 40 993
SI 22:00:00 TS -24.75 111.75 996 996 40 993
SI 23:00:00 TS -24.85 111.79 996 40 993
SI 1963-01-28 00:00:00 TS -24.95 111.82 996 40 994
SI 01:00:00 TS -25.07 111.85 997 997 40 994
SI 03:00:00 TS -25.36 111.90 997 40 994
SI 06:00:00 TS -25.87 111.96 997 40 995
SI 07:00:00 TS -26.04 111.99 997 997 39 995
SI 09:00:00 TS -26.38 112.05 997 37 995
SI 10:00:00 TS -26.55 112.07 997 997 36 995
SI 11:00:00 TS -26.73 112.08 997 35 995
SI 12:00:00 TS -26.90 112.08 997 35 996
SI 15:00:00 TS -27.40 111.99 997 35 996
SI 18:00:00 TS -27.85 111.86 997 35 997
SI 19:00:00 TS -27.99 111.82 997 997 35 997
SI 21:00:00 TS -28.24 111.75 997 35 997
SI 22:00:00 TS -28.35 111.72 997 997 35 997
SI 23:00:00 TS -28.45 111.69 997 35 997
SI 1963-01-29 00:00:00 TS -28.54 111.67 997 35 997
SI 03:00:00 TS -28.73 111.61 997 35 997
SI 04:00:00 TS -28.77 111.60 997 997 35 997
SI 06:00:00 TS -28.83 111.58 997 35 998
SI 07:00:00 TS -28.85 111.58 998 998 34 998
SI 09:00:00 TS -28.89 111.57 998 32 998
SI 10:00:00 TS -28.90 111.57 999 999 31 998
SI 11:00:00 TS -28.91 111.57 999 30 998
SI 12:00:00 TS -28.93 111.57 999 30 999
SI 15:00:00 TS -28.98 111.50 999 30 999
SI 16:00:00 TS -29.00 111.43 1000 1000 30 999
SI 18:00:00 TS -29.04 111.35 1000 30 1000
SI 19:00:00 TS -29.06 111.27 1001 1001 29 1000
SI 21:00:00 TS -29.11 111.21 1001 27 1000
SI 22:00:00 TS -29.13 111.24 1002 1002 26 1000
SI 23:00:00 TS -29.15 111.23 1002 25 1000
SI 1963-01-30 00:00:00 TS -29.16 111.22 1002 25 1001
SI 01:00:00 NR -29.00 112.00 1003 1003

Source Information

Agency Information
USA bsh191963.txt
TOKYO
CMA
HKO
NEWDELHI
REUNION
BOM IDCKMSTM0S.csv:Line=3488:unnamed
NADI
WELLINGTON
DS824 s_hem.dat:869:19S
TD9636 cons_worldwide_trop_cyclone_18710101-19891231-006:Line=6393
TD9635
NEUMANN tracks.sh:Storm=59:HSK1363:BSH1963:BM314
MLC

All available IBTrACS Data

SEASON BASIN SUBBASIN ISO_TIME_________ NATURE LAT LON WMO PRES WMO AGENCY DIST2LAND LANDFALL IFLAG USA AGENCY USA ATCF_ID USA LAT USA LON USA SSHS BOM LAT BOM LON BOM PRES DS824 LAT DS824 LON DS824 STAGE TD9636 LAT TD9636 LON TD9636 STAGE NEUMANN LAT NEUMANN LON NEUMANN CLASS NEUMANN WIND NEUMANN PRES STORM SPEED STORM DIR
Year degrees north degrees east mb km km degrees north degrees east 1 degrees north degrees east mb degrees north degrees east degrees north degrees east degrees north degrees east kts mb kts degrees
1963 SI WA 1963-01-18 23:00:00 NR -12.80 124.00 239 239 __________O___ -1 -12.80 124.00 1 5 267
1963 SI WA 1963-01-19 00:00:00 TS -12.80 123.92 245 245 O________OP___ jtwc_sh SH191963 -12.80 123.90 -1 -12.80 123.90 TC -12.81 123.94 1 4 250
1963 SI WA 01:00:00 TS -12.84 123.88 1001 bom 245 236 P_____O__PP___ SH191963 -12.82 123.85 -1 -13.00 124.00 1001 -12.82 123.85 TC -12.82 123.88 1 3 242
1963 SI WA 03:00:00 TS -12.88 123.78 243 243 P_____P__PP___ SH191963 -12.86 123.74 -1 -13.00 123.94 -12.86 123.74 TC -12.84 123.77 1 3 250
1963 SI WA 06:00:00 TS -12.92 123.67 250 250 O_____P__OP_O_ jtwc_sh SH191963 -12.90 123.60 -1 -13.00 123.84 -12.90 123.60 TC -12.86 123.61 1 -13.00 124.00 TC 25 1001 2 251
1963 SI WA 09:00:00 TS -12.94 123.59 257 256 P_____P__PP_P_ SH191963 -12.90 123.49 -1 -13.01 123.74 -12.90 123.49 TC -12.89 123.47 1 -13.05 123.90 TC 25 1001 2 253
1963 SI WA 11:00:00 TS -12.95 123.54 256 256 P_____P__PO_P_ SH191963 -12.90 123.43 -1 -13.02 123.68 -12.90 123.43 TC -12.90 123.40 1 -13.08 123.84 TC 25 1001 1 248
1963 SI WA 12:00:00 TS -12.97 123.52 256 256 O_____P__OP_O_ jtwc_sh SH191963 -12.90 123.40 -1 -13.03 123.65 -12.90 123.40 TC -12.91 123.37 1 -13.10 123.80 TC 25 1001 2 243
1963 SI WA 15:00:00 TS -13.01 123.43 264 264 P_____P__PP_P_ SH191963 -12.95 123.31 -1 -13.06 123.56 -12.95 123.31 TC -12.93 123.29 1 -13.15 123.69 TC 25 1001 2 245
1963 SI WA 18:00:00 TS -13.05 123.34 265 265 O_____P__OP_O_ jtwc_sh SH191963 -13.00 123.20 -1 -13.11 123.48 -13.00 123.20 TC -12.95 123.22 1 -13.20 123.60 TC 25 1001 2 249
1963 SI WA 21:00:00 TS -13.08 123.24 273 273 P_____P__PP_P_ SH191963 -13.00 123.08 -1 -13.18 123.40 -13.00 123.08 TC -12.98 123.11 1 -13.24 123.55 TC 25 1001 2 254
1963 SI WA 23:00:00 TS -13.10 123.16 273 273 P_____P__PO_P_ SH191963 -13.00 122.97 -1 -13.23 123.35 -13.00 122.97 TC -13.00 123.00 1 -13.28 123.52 TC 25 1001 3 250
1963 SI WA 1963-01-20 00:00:00 TS -13.12 123.12 282 282 O_____P__OP_O_ jtwc_sh SH191963 -13.00 122.90 -1 -13.26 123.32 -13.00 122.90 TC -13.01 122.92 1 -13.30 123.50 TC 25 1001 3 241
1963 SI WA 01:00:00 TS -13.15 123.07 1001 bom 275 275 P_____O__PP_P_ SH191963 -13.01 122.82 -1 -13.30 123.30 1001 -13.01 122.82 TC -13.01 122.83 1 -13.33 123.47 TC 25 1000 4 241
1963 SI WA 03:00:00 TS -13.21 122.95 284 284 P_____P__PP_P_ SH191963 -13.04 122.62 -1 -13.38 123.26 -13.04 122.62 TC -13.03 122.63 1 -13.39 123.41 TC 27 1000 4 241
1963 SI WA 06:00:00 TS -13.32 122.76 297 297 O_____P__OP_O_ jtwc_sh SH191963 -13.10 122.30 -1 -13.52 123.19 -13.10 122.30 TC -13.06 122.31 1 -13.50 123.30 TC 30 1000 4 242
1963 SI WA 09:00:00 TS -13.41 122.56 311 311 P_____P__PP_P_ SH191963 -13.13 121.98 -1 -13.68 123.13 -13.13 121.98 TC -13.13 121.99 1 -13.64 123.19 TC 30 1000 4 241
1963 SI WA 11:00:00 TS -13.49 122.44 318 318 P_____P__PO_P_ SH191963 -13.17 121.78 -1 -13.79 123.09 -13.17 121.78 TC -13.20 121.80 1 -13.74 123.13 TC 30 1000 4 234
1963 SI WA 12:00:00 TS -13.53 122.39 318 310 O_____P__OP_O_ jtwc_sh SH191963 -13.20 121.70 -1 -13.85 123.07 -13.20 121.70 TC -13.24 121.72 1 -13.80 123.10 TC 30 1000 4 218
1963 SI WA 15:00:00 TS -13.71 122.27 310 300 P_____P__PP_P_ SH191963 -13.37 121.52 -1 -14.02 123.00 -13.37 121.52 TC -13.40 121.52 1 -14.00 123.05 TC 30 1000 4 211
1963 SI WA 18:00:00 TS -13.90 122.16 300 282 O_____P__OP_O_ jtwc_sh SH191963 -13.60 121.40 -1 -14.20 122.92 -13.60 121.40 TC -13.60 121.36 1 -14.20 123.00 TC 30 1000 4 207
1963 SI WA 21:00:00 TS -14.10 122.06 282 274 P_____P__PP_P_ SH191963 -13.83 121.28 -1 -14.38 122.84 -13.83 121.28 TC -13.83 121.25 1 -14.37 122.91 TC 30 1000 4 206
1963 SI WA 23:00:00 TS -14.24 122.00 274 264 P_____P__PO_P_ SH191963 -14.01 121.22 -1 -14.49 122.77 -14.01 121.22 TC -14.00 121.20 1 -14.46 122.84 TC 30 1000 4 204
1963 SI WA 1963-01-21 00:00:00 TS -14.31 121.97 264 258 O_____P__OP_O_ jtwc_sh SH191963 -14.10 121.20 -1 -14.55 122.74 -14.10 121.20 TC -14.09 121.17 1 -14.50 122.80 TC 30 1000 5 201
1963 SI WA 01:00:00 TS -14.37 121.94 1000 bom 258 248 P_____O__PP_P_ SH191963 -14.20 121.17 -1 -14.60 122.70 1000 -14.20 121.17 TC -14.17 121.15 1 -14.54 122.77 TC 30 1000 5 204
1963 SI WA 03:00:00 TS -14.51 121.88 248 233 P_____P__PP_P_ SH191963 -14.40 121.13 -1 -14.69 122.62 -14.40 121.13 TC -14.36 121.11 1 -14.60 122.71 TC 30 1000 4 200
1963 SI WA 06:00:00 TS -14.72 121.81 233 214 O_____P__OP_O_ jtwc_sh SH191963 -14.70 121.10 -1 -14.81 122.48 -14.70 121.10 TC -14.65 121.10 1 -14.70 122.60 TC 30 1000 4 198
1963 SI WA 09:00:00 TS -14.92 121.75 220 211 P_____P__PP_P_ SH191963 -14.96 121.11 -1 -14.93 122.33 -14.96 121.11 TC -14.93 121.14 1 -14.85 122.47 TC 30 1000 4 195
1963 SI WA 11:00:00 TS -15.05 121.72 211 202 P_____P__PO_P_ SH191963 -15.12 121.16 -1 -15.00 122.22 -15.12 121.16 TC -15.10 121.20 1 -14.95 122.36 TC 30 1000 4 194
1963 SI WA 12:00:00 TS -15.10 121.71 202 185 O_____P__OP_O_ jtwc_sh SH191963 -15.20 121.20 -1 -15.04 122.17 -15.20 121.20 TC -15.17 121.24 1 -15.00 122.30 TC 30 1000 3 0
1963 SI WA 15:00:00 TS -15.26 121.71 185 177 P_____P__PP_P_ SH191963 -15.41 121.38 -1 -15.14 122.00 -15.41 121.38 TC -15.38 121.39 1 -15.11 122.10 TC 30 1000 3 177
1963 SI WA 18:00:00 TS -15.41 121.72 177 162 O_____P__OP_O_ jtwc_sh SH191963 -15.60 121.60 -1 -15.25 121.82 -15.60 121.60 TC -15.57 121.59 1 -15.20 121.90 TC 30 1000 3 172
1963 SI WA 21:00:00 TS -15.56 121.74 162 154 P_____P__PP_P_ SH191963 -15.79 121.81 -1 -15.35 121.64 -15.79 121.81 TC -15.76 121.78 1 -15.29 121.74 TC 30 1000 3 0
1963 SI WA 23:00:00 TS -15.67 121.75 146 146 P_____P__PO_P_ SH191963 -15.93 121.94 -1 -15.43 121.52 -15.93 121.94 TC -15.90 121.90 1 -15.36 121.65 TC 30 1000 3 175
1963 SI WA 1963-01-22 00:00:00 TS -15.72 121.75 146 139 O_____P__OP_O_ jtwc_sh SH191963 -16.00 122.00 -1 -15.46 121.46 -16.00 122.00 TC -15.99 121.96 1 -15.40 121.60 TC 30 1000 4 0
1963 SI WA 01:00:00 TS -15.79 121.76 1000 bom 139 131 P_____O__PP_P_ SH191963 -16.08 122.07 -1 -15.50 121.40 1000 -16.08 122.07 TC -16.08 122.03 1 -15.45 121.55 TC 30 999 4 0
1963 SI WA 03:00:00 TS -15.92 121.77 131 116 P_____P__PP_P_ SH191963 -16.25 122.19 -1 -15.57 121.28 -16.25 122.19 TC -16.26 122.14 1 -15.55 121.46 TC 30 999 4 182
1963 SI WA 06:00:00 TS -16.11 121.74 123 108 O_____P__OP_O_ jtwc_sh SH191963 -16.50 122.30 -1 -15.68 121.10 -16.50 122.30 TC -16.53 122.28 1 -15.70 121.30 TC 30 999 4 195
1963 SI WA 09:00:00 TS -16.29 121.67 108 108 P_____P__PP_P_ SH191963 -16.73 122.32 -1 -15.79 120.91 -16.73 122.32 TC -16.77 122.33 1 -15.80 121.10 TC 30 999 4 210
1963 SI WA 11:00:00 TS -16.39 121.58 108 108 P_____P__PO_P_ SH191963 -16.85 122.26 -1 -15.87 120.79 -16.85 122.26 TC -16.90 122.30 1 -15.86 120.96 TC 30 999 4 224
1963 SI WA 12:00:00 TS -16.43 121.52 115 108 O_____P__OP_O_ jtwc_sh SH191963 -16.90 122.20 -1 -15.91 120.73 -16.90 122.20 TC -16.94 122.25 1 -15.90 120.90 TC 30 999 4 240
1963 SI WA 15:00:00 TS -16.54 121.31 125 120 P_____P__PP_P_ SH191963 -16.97 121.94 -1 -16.03 120.55 -16.97 121.94 TC -17.02 122.02 1 -16.05 120.75 TC 32 998 5 247
1963 SI WA 18:00:00 TS -16.62 121.06 139 139 O_____P__OP_O_ jtwc_sh SH191963 -17.00 121.60 -1 -16.15 120.37 -17.00 121.60 TC -17.06 121.69 1 -16.20 120.60 TC 35 998 5 252
1963 SI WA 21:00:00 TS -16.70 120.81 163 163 P_____P__PP_P_ SH191963 -17.05 121.29 -1 -16.29 120.21 -17.05 121.29 TC -17.08 121.33 1 -16.31 120.41 TC 35 998 5 252
1963 SI WA 23:00:00 TS -16.75 120.64 182 179 P_____P__PO_P_ SH191963 -17.08 121.09 -1 -16.39 120.10 -17.08 121.09 TC -17.10 121.10 1 -16.37 120.27 TC 35 998 5 251
1963 SI WA 1963-01-23 00:00:00 TS -16.78 120.56 179 179 O_____P__OP_O_ jtwc_sh SH191963 -17.10 121.00 -1 -16.45 120.05 -17.10 121.00 TC -17.12 121.01 1 -16.40 120.20 TC 35 998 5 251
1963 SI WA 01:00:00 TS -16.80 120.49 998 bom 189 189 P_____O__PP_P_ SH191963 -17.11 120.91 -1 -16.50 120.00 998 -17.11 120.91 TC -17.13 120.92 1 -16.44 120.14 TC 35 997 4 249
1963 SI WA 03:00:00 TS -16.86 120.34 206 206 P_____P__PP_P_ SH191963 -17.14 120.74 -1 -16.64 119.93 -17.14 120.74 TC -17.16 120.74 1 -16.51 120.01 TC 35 997 4 247
1963 SI WA 06:00:00 TS -16.94 120.14 226 222 O_____P__OP_O_ jtwc_sh SH191963 -17.20 120.50 -1 -16.85 119.83 -17.20 120.50 TC -17.23 120.49 1 -16.60 119.80 TC 35 997 4 246
1963 SI WA 09:00:00 TS -17.04 119.92 243 240 P_____P__PP_P_ SH191963 -17.28 120.23 -1 -17.08 119.74 -17.28 120.23 TC -17.32 120.25 1 -16.66 119.56 TC 35 996 5 245
1963 SI WA 11:00:00 TS -17.11 119.77 250 250 P_____P__PO_P_ SH191963 -17.35 120.07 -1 -17.23 119.68 -17.35 120.07 TC -17.40 120.10 1 -16.69 119.39 TC 35 996 5 241
1963 SI WA 12:00:00 TS -17.15 119.71 260 258 O_____P__OP_O_ jtwc_sh SH191963 -17.40 120.00 -1 -17.31 119.64 -17.40 120.00 TC -17.45 120.04 1 -16.70 119.30 TC 35 996 4 233
1963 SI WA 15:00:00 TS -17.29 119.53 274 274 P_____P__PP_P_ SH191963 -17.58 119.85 -1 -17.52 119.54 -17.58 119.85 TC -17.62 119.88 1 -16.74 119.05 TC 35 996 5 229
1963 SI WA 18:00:00 TS -17.45 119.34 287 275 O_____P__OP_O_ jtwc_sh SH191963 -17.80 119.70 -1 -17.71 119.41 -17.80 119.70 TC -17.82 119.71 1 -16.80 118.80 TC 35 996 5 229
1963 SI WA 21:00:00 TS -17.62 119.12 278 267 P_____P__PP_P_ SH191963 -18.04 119.49 -1 -17.86 119.26 -18.04 119.49 TC -18.04 119.49 1 -16.88 118.57 TC 37 995 6 231
1963 SI WA 22:00:00 TS -17.68 119.04 998 bom 268 268 P_____O__PP_P_ SH191963 -18.13 119.41 -1 -17.90 119.20 998 -18.13 119.41 TC -18.12 119.40 1 -16.91 118.49 TC 38 995 6 234
1963 SI WA 23:00:00 TS -17.74 118.95 269 258 P_____P__PO_P_ SH191963 -18.21 119.31 -1 -17.94 119.16 998 -18.21 119.31 TC -18.20 119.30 1 -16.95 118.40 TC 39 995 7 232
1963 SI WA 1963-01-24 00:00:00 TS -17.82 118.86 258 248 O_____P__OP_O_ jtwc_sh SH191963 -18.30 119.20 -1 -17.97 119.09 998 -18.30 119.20 TC -18.29 119.18 1 -17.00 118.30 TC 40 995 7 233
1963 SI WA 01:00:00 TS -17.89 118.75 998 bom 249 240 P_____O__PP_P_ SH191963 -18.38 119.08 -1 -18.00 119.00 998 -18.38 119.08 TC -18.38 119.05 1 -17.05 118.19 TC 40 994 8 240
1963 SI WA 03:00:00 TS -18.03 118.47 243 235 P_____P__PP_P_ SH191963 -18.55 118.79 -1 -18.06 118.68 997 -18.55 118.79 TC -18.57 118.77 1 -17.17 117.93 TC 40 994 9 242
1963 SI WA 04:00:00 TS -18.10 118.32 997 bom 239 232 P_____O__PP_P_ SH191963 -18.63 118.64 -1 -18.10 118.50 997 -18.63 118.64 TC -18.66 118.61 1 -17.24 117.79 TC 40 994 10 243
1963 SI WA 06:00:00 TS -18.25 118.01 232 232 O_____P__OP_O_ jtwc_sh SH191963 -18.80 118.30 -1 -18.24 118.17 997 -18.80 118.30 TC -18.84 118.28 1 -17.40 117.50 TC 40 994 10 243
1963 SI WA 07:00:00 TS -18.33 117.84 997 bom 237 218 P_____O__PP_P_ SH191963 -18.90 118.13 -1 -18.30 118.00 997 -18.90 118.13 TC -18.93 118.11 1 -17.49 117.35 TC 40 993 11 243
1963 SI WA 09:00:00 TS -18.49 117.51 221 221 P_____P__PP_P_ SH191963 -19.09 117.76 -1 -18.37 117.67 997 -19.09 117.76 TC -19.08 117.76 1 -17.68 117.05 TC 42 993 11 244
1963 SI WA 10:00:00 TS -18.56 117.34 997 bom 218 218 P_____O__PP_P_ SH191963 -19.17 117.57 -1 -18.40 117.50 997 -19.17 117.57 TC -19.14 117.58 1 -17.78 116.90 TC 43 992 11 245
1963 SI WA 11:00:00 TS -18.63 117.17 222 213 P_____P__PO_P_ SH191963 -19.25 117.38 -1 -18.45 117.33 996 -19.25 117.38 TC -19.20 117.40 1 -17.89 116.75 TC 44 992 10 246
1963 SI WA 12:00:00 TS -18.70 117.00 213 191 O_____P__OP_O_ jtwc_sh SH191963 -19.30 117.20 -1 -18.50 117.17 996 -19.30 117.20 TC -19.23 117.23 1 -18.00 116.60 TC 45 992 10 250
1963 SI WA 15:00:00 TS -18.86 116.52 191 191 P_____P__PP_P_ SH191963 -19.34 116.70 -1 -18.65 116.67 996 -19.34 116.70 TC -19.27 116.72 1 -18.35 116.20 TC 45 991 10 252
1963 SI WA 16:00:00 TS -18.90 116.36 996 bom 192 189 P_____O__PP_P_ SH191963 -19.33 116.54 -1 -18.70 116.50 996 -19.33 116.54 TC -19.27 116.55 1 -18.47 116.07 TC 45 991 9 255
1963 SI WA 18:00:00 TS -18.98 116.03 193 193 O_____P__OP_O_ jtwc_sh SH191963 -19.30 116.20 -1 -18.77 116.17 996 -19.30 116.20 TC -19.26 116.20 1 -18.70 115.80 TC 45 991 10 256
1963 SI WA 19:00:00 TS -19.02 115.87 996 bom 197 197 P_____O__PP_P_ SH191963 -19.29 116.02 -1 -18.80 116.00 996 -19.29 116.02 TC -19.26 116.02 1 -18.81 115.65 TC 45 990 10 257
1963 SI WA 21:00:00 TS -19.09 115.53 209 209 P_____P__PP_P_ SH191963 -19.27 115.66 -1 -18.87 115.67 995 -19.27 115.66 TC -19.27 115.67 1 -19.01 115.34 TC 45 990 10 257
1963 SI WA 22:00:00 TS -19.13 115.36 995 bom 215 212 P_____O__PP_P_ SH191963 -19.27 115.48 -1 -18.90 115.50 995 -19.27 115.48 TC -19.28 115.48 1 -19.11 115.19 TC 45 990 10 255
1963 SI WA 23:00:00 TS -19.17 115.19 216 216 P_____P__PO_P_ SH191963 -19.28 115.29 -1 -18.92 115.33 995 -19.28 115.29 TC -19.30 115.30 1 -19.20 115.04 TC 45 990 10 253
1963 SI WA 1963-01-25 00:00:00 TS -19.23 115.02 227 224 O_____P__OP_O_ jtwc_sh SH191963 -19.30 115.10 -1 -18.95 115.16 995 -19.30 115.10 TC -19.33 115.10 1 -19.30 114.90 TC 45 990 10 251
1963 SI WA 01:00:00 TS -19.29 114.86 995 bom 224 224 P_____O__PP_P_ SH191963 -19.34 114.90 -1 -19.00 115.00 995 -19.34 114.90 TC -19.37 114.89 1 -19.40 114.77 TC 45 989 10 246
1963 SI WA 03:00:00 TS -19.44 114.53 239 230 P_____P__PP_P_ SH191963 -19.46 114.49 -1 -19.19 114.73 995 -19.46 114.49 TC -19.46 114.47 1 -19.61 114.53 TC 47 989 10 243
1963 SI WA 04:00:00 TS -19.52 114.37 995 bom 237 236 P_____O__PP_P_ SH191963 -19.54 114.29 -1 -19.30 114.60 995 -19.54 114.29 TC -19.51 114.27 1 -19.71 114.42 TC 48 989 10 240
1963 SI WA 06:00:00 TS -19.69 114.06 238 235 O_____P__OP_O_ jtwc_sh SH191963 -19.70 113.90 -1 -19.49 114.33 994 -19.70 113.90 TC -19.64 113.86 1 -19.90 114.20 TC 50 989 10 240
1963 SI WA 07:00:00 TS -19.78 113.91 994 bom 235 224 P_____O__PP_P_ SH191963 -19.76 113.71 -1 -19.60 114.20 994 -19.76 113.71 TC -19.72 113.67 1 -19.99 114.08 TC 50 988 10 238
1963 SI WA 09:00:00 TS -19.96 113.61 216 216 P_____P__PP_P_ SH191963 -19.90 113.35 -1 -19.86 113.93 994 -19.90 113.35 TC -19.89 113.31 1 -20.15 113.84 TC 50 988 10 235
1963 SI WA 10:00:00 TS -20.06 113.47 994 bom 207 207 P_____O__PP_P_ SH191963 -19.98 113.19 -1 -20.00 113.80 994 -19.98 113.19 TC -19.99 113.15 1 -20.23 113.73 TC 50 988 10 231
1963 SI WA 11:00:00 TS -20.17 113.34 203 197 P_____P__PO_P_ SH191963 -20.08 113.04 -1 -20.13 113.67 994 -20.08 113.04 TC -20.10 113.00 2 -20.31 113.61 TC 50 988 10 227
1963 SI WA 12:00:00 TS -20.28 113.21 197 176 O_____P__OP_O_ jtwc_sh SH191963 -20.20 112.90 -1 -20.27 113.53 994 -20.20 112.90 TC -20.23 112.87 2 -20.40 113.50 TC 50 988 11 219
1963 SI WA 15:00:00 TS -20.71 112.86 176 174 P_____P__PP_P_ SH191963 -20.74 112.54 -1 -20.67 113.13 994 -20.74 112.54 TC -20.69 112.56 2 -20.68 113.20 TC 50 987 11 216
1963 SI WA 16:00:00 TS -20.86 112.76 994 bom 167 167 P_____O__PP_P_ SH191963 -20.94 112.45 -1 -20.80 113.00 994 -20.94 112.45 TC -20.86 112.48 2 -20.79 113.10 TC 50 987 11 212
1963 SI WA 18:00:00 TS -21.15 112.57 164 164 O_____P__OP_O_ jtwc_sh SH191963 -21.30 112.30 -1 -21.07 112.72 993 -21.30 112.30 TC -21.19 112.34 2 -21.00 112.90 TC 50 987 10 212
1963 SI WA 19:00:00 TS -21.29 112.47 993 bom 168 168 P_____O__PP_P_ SH191963 -21.44 112.24 -1 -21.20 112.60 993 -21.44 112.24 TC -21.35 112.28 2 -21.12 112.78 TC 50 986 9 211
1963 SI WA 21:00:00 TS -21.55 112.30 173 173 P_____P__PP_P_ SH191963 -21.66 112.17 -1 -21.47 112.39 993 -21.66 112.17 TC -21.65 112.18 2 -21.36 112.53 TC 52 986 9 211
1963 SI WA 22:00:00 TS -21.67 112.23 993 bom 175 169 P_____O__PP_P_ SH191963 -21.75 112.14 -1 -21.60 112.30 993 -21.75 112.14 TC -21.78 112.14 2 -21.48 112.41 TC 53 985 8 211
1963 SI WA 23:00:00 TS -21.78 112.16 169 169 P_____P__PO_P_ SH191963 -21.83 112.12 -1 -21.75 112.19 993 -21.83 112.12 TC -21.90 112.10 1 -21.59 112.30 TC 54 985 7 212
1963 SI WA 1963-01-26 00:00:00 TS -21.88 112.09 173 173 O_____P__OP_O_ jtwc_sh SH191963 -21.90 112.10 -1 -21.89 112.08 993 -21.90 112.10 TC -21.98 112.05 1 -21.70 112.20 TC 55 985 7 213
1963 SI WA 01:00:00 TS -21.97 112.03 993 bom 177 173 P_____O__PP_P_ SH191963 -21.97 112.07 -1 -22.00 112.00 993 -21.97 112.07 TC -22.05 112.00 1 -21.80 112.12 TC 55 985 5 214
1963 SI WA 03:00:00 TS -22.09 111.94 183 183 P_____P__PP_P_ SH191963 -22.08 112.00 -1 -22.08 111.92 992 -22.08 112.00 TC -22.16 111.93 1 -21.98 112.00 TC 55 985 4 213
1963 SI WA 04:00:00 TS -22.14 111.91 992 bom 183 180 P_____O__PP_P_ SH191963 -22.12 111.97 -1 -22.10 111.90 992 -22.12 111.97 TC -22.21 111.89 1 -22.06 111.96 TC 55 985 3 213
1963 SI WA 06:00:00 TS -22.23 111.84 190 187 O_____P__OP_O_ jtwc_sh SH191963 -22.20 111.90 -1 -22.24 111.83 992 -22.20 111.90 TC -22.27 111.83 1 -22.20 111.90 TC 55 985 3 212
1963 SI WA 07:00:00 TS -22.27 111.81 992 bom 187 187 P_____O__PP_P_ SH191963 -22.24 111.87 -1 -22.30 111.80 992 -22.24 111.87 TC -22.30 111.81 1 -22.26 111.87 TC 55 985 3 214
1963 SI WA 09:00:00 TS -22.35 111.76 187 186 P_____P__PP_P_ SH191963 -22.30 111.80 -1 -22.36 111.73 992 -22.30 111.80 TC -22.34 111.75 1 -22.36 111.83 TC 55 985 3 216
1963 SI WA 10:00:00 TS -22.38 111.73 992 bom 196 196 P_____O__PP_P_ SH191963 -22.33 111.77 -1 -22.40 111.70 992 -22.33 111.77 TC -22.37 111.73 1 -22.41 111.82 TC 55 985 3 208
1963 SI WA 11:00:00 TS -22.43 111.71 196 195 P_____P__PO_P_ SH191963 -22.36 111.73 -1 -22.46 111.71 990 -22.36 111.73 TC -22.40 111.70 2 -22.46 111.81 TC 55 985 3 206
1963 SI WA 12:00:00 TS -22.47 111.69 195 195 O_____P__OP_O_ jtwc_sh SH191963 -22.40 111.70 -1 -22.54 111.72 988 -22.40 111.70 TC -22.44 111.66 2 -22.50 111.80 TC 55 986 3 206
1963 SI WA 13:00:00 TS -22.52 111.66 987 bom 195 195 P_____O__PP_P_ SH191963 -22.44 111.67 -1 -22.60 111.70 987 -22.44 111.67 TC -22.48 111.63 2 -22.55 111.78 TC 54 986 3 215
1963 SI WA 15:00:00 TS -22.61 111.58 205 205 P_____P__PP_P_ SH191963 -22.53 111.60 -1 -22.67 111.50 989 -22.53 111.60 TC -22.56 111.56 2 -22.64 111.75 TC 52 987 4 218
1963 SI WA 16:00:00 TS -22.66 111.54 991 bom 215 215 P_____O__PP_P_ SH191963 -22.59 111.57 -1 -22.70 111.40 991 -22.59 111.57 TC -22.61 111.52 2 -22.69 111.73 TC 51 987 3 214
1963 SI WA 18:00:00 TS -22.76 111.48 216 216 O_____P__OP_O_ jtwc_sh SH191963 -22.70 111.50 -1 -22.77 111.33 991 -22.70 111.50 TC -22.70 111.45 2 -22.80 111.70 TC 50 988 3 210
1963 SI WA 19:00:00 TS -22.81 111.45 991 bom 226 226 P_____O__PP_P_ SH191963 -22.76 111.47 -1 -22.80 111.30 991 -22.76 111.47 TC -22.76 111.42 2 -22.86 111.68 TC 50 988 4 213
1963 SI WA 21:00:00 TS -22.91 111.38 227 227 P_____P__PP_P_ SH191963 -22.88 111.41 -1 -22.87 111.16 991 -22.88 111.41 TC -22.87 111.36 2 -22.99 111.65 TC 50 988 4 211
1963 SI WA 22:00:00 TS -22.97 111.34 991 bom 239 239 P_____O__PP_P_ SH191963 -22.95 111.37 -1 -22.90 111.10 991 -22.95 111.37 TC -22.93 111.33 2 -23.06 111.63 TC 50 988 4 204
1963 SI WA 23:00:00 TS -23.03 111.31 239 239 P_____P__PO_P_ SH191963 -23.02 111.34 -1 -22.93 111.05 990 -23.02 111.34 TC -23.00 111.30 1 -23.13 111.62 TC 50 988 4 203
1963 SI WA 1963-01-27 00:00:00 TS -23.09 111.28 241 241 O_____P__OP_O_ jtwc_sh SH191963 -23.10 111.30 -1 -22.96 111.01 990 -23.10 111.30 TC -23.08 111.26 1 -23.20 111.60 TC 50 989 4 202
1963 SI WA 01:00:00 TS -23.16 111.25 990 bom 237 237 P_____O__PP_P_ SH191963 -23.18 111.24 -1 -23.00 111.00 990 -23.18 111.24 TC -23.16 111.23 1 -23.27 111.58 TC 49 989 4 194
1963 SI WA 03:00:00 TS -23.30 111.22 243 240 P_____P__PP_P_ SH191963 -23.34 111.12 -1 -23.12 111.05 990 -23.34 111.12 TC -23.34 111.16 1 -23.40 111.54 TC 47 989 5 191
1963 SI WA 04:00:00 TS -23.38 111.21 991 bom 240 238 P_____O__PP_P_ SH191963 -23.42 111.07 -1 -23.20 111.10 991 -23.42 111.07 TC -23.44 111.13 1 -23.47 111.53 TC 46 989 5 185
1963 SI WA 06:00:00 TS -23.54 111.21 238 236 O_____P__OP_O_ jtwc_sh SH191963 -23.60 111.00 -1 -23.40 111.24 991 -23.60 111.00 TC -23.63 111.08 1 -23.60 111.50 TC 45 990 5 0
1963 SI WA 07:00:00 TS -23.63 111.22 992 bom 236 223 P_____O__PP_P_ SH191963 -23.70 111.00 -1 -23.50 111.30 992 -23.70 111.00 TC -23.73 111.07 1 -23.67 111.50 TC 45 990 5 170
1963 SI WA 09:00:00 TS -23.79 111.25 223 220 P_____P__PP_P_ SH191963 -23.91 111.05 -1 -23.64 111.37 992 -23.91 111.05 TC -23.92 111.07 1 -23.80 111.50 TC 45 991 5 166
1963 SI WA 10:00:00 TS -23.88 111.28 993 bom 220 220 P_____O__PP_P_ SH191963 -24.02 111.09 -1 -23.70 111.40 993 -24.02 111.09 TC -24.01 111.08 1 -23.87 111.50 TC 45 991 5 161
1963 SI WA 11:00:00 TS -23.96 111.31 217 217 P_____P__PO_P_ SH191963 -24.11 111.14 -1 -23.77 111.45 993 -24.11 111.14 TC -24.10 111.10 2 -23.93 111.50 TC 45 991 5 159
1963 SI WA 12:00:00 TS -24.03 111.34 217 203 O_____P__OP_O_ jtwc_sh SH191963 -24.20 111.20 -1 -23.85 111.50 993 -24.20 111.20 TC -24.16 111.14 2 -24.00 111.50 TC 45 992 5 154
1963 SI WA 15:00:00 TS -24.23 111.46 193 192 P_____P__PP_P_ SH191963 -24.36 111.38 -1 -24.11 111.65 993 -24.36 111.38 TC -24.31 111.31 2 -24.19 111.46 TC 42 992 4 153
1963 SI WA 16:00:00 TS -24.30 111.50 994 bom 192 182 P_____O__PP_P_ SH191963 -24.40 111.45 -1 -24.20 111.70 994 -24.40 111.45 TC -24.36 111.39 2 -24.26 111.44 TC 41 992 5 151
1963 SI WA 18:00:00 TS -24.43 111.58 182 182 O_____P__OP_O_ jtwc_sh SH191963 -24.50 111.60 -1 -24.40 111.77 994 -24.50 111.60 TC -24.48 111.55 2 -24.40 111.40 TC 40 993 5 152
1963 SI WA 19:00:00 TS -24.51 111.62 995 bom 182 173 P_____O__PP_P_ SH191963 -24.56 111.68 -1 -24.50 111.80 995 -24.56 111.68 TC -24.54 111.64 2 -24.47 111.39 TC 40 993 5 153
1963 SI WA 21:00:00 TS -24.67 111.70 175 175 P_____P__PP_P_ SH191963 -24.69 111.85 -1 -24.71 111.87 995 -24.69 111.85 TC -24.69 111.82 2 -24.63 111.36 TC 40 993 5 154
1963 SI WA 22:00:00 TS -24.75 111.75 996 bom 177 167 P_____O__PP_P_ SH191963 -24.78 111.94 -1 -24.80 111.90 996 -24.78 111.94 TC -24.79 111.91 2 -24.72 111.34 TC 40 993 6 156
1963 SI WA 23:00:00 TS -24.85 111.79 167 167 P_____P__PO_P_ SH191963 -24.88 112.02 -1 -24.86 111.94 996 -24.88 112.02 TC -24.90 112.00 1 -24.81 111.32 TC 40 993 6 162
1963 SI WA 1963-01-28 00:00:00 TS -24.95 111.82 174 174 O_____P__OP_O_ jtwc_sh SH191963 -25.00 112.10 -1 -24.92 111.97 996 -25.00 112.10 TC -25.04 112.09 1 -24.90 111.30 TC 40 994 7 166
1963 SI WA 01:00:00 TS -25.07 111.85 997 bom 164 156 P_____O__PP_P_ SH191963 -25.15 112.17 -1 -25.00 112.00 997 -25.15 112.17 TC -25.20 112.19 1 -24.99 111.27 TC 40 994 8 171
1963 SI WA 03:00:00 TS -25.36 111.90 154 134 P_____P__PP_P_ SH191963 -25.50 112.30 -1 -25.27 112.02 997 -25.50 112.30 TC -25.54 112.38 1 -25.18 111.21 TC 40 994 10 173
1963 SI WA 06:00:00 TS -25.87 111.96 131 130 O_____P__OP_O_ jtwc_sh SH191963 -26.10 112.50 -1 -25.82 112.01 997 -26.10 112.50 TC -26.12 112.64 1 -25.50 111.10 TC 40 995 10 173
1963 SI WA 07:00:00 TS -26.04 111.99 997 bom 130 129 P_____O__PP_P_ SH191963 -26.30 112.60 -1 -26.00 112.00 997 -26.30 112.60 TC -26.32 112.72 1 -25.62 111.07 TC 39 995 10 171
1963 SI WA 09:00:00 TS -26.38 112.05 129 119 P_____P__PP_P_ SH191963 -26.70 112.81 -1 -26.33 112.00 997 -26.70 112.81 TC -26.72 112.83 1 -25.89 111.00 TC 37 995 10 173
1963 SI WA 10:00:00 TS -26.55 112.07 997 bom 123 123 P_____O__PP_P_ SH191963 -26.90 112.90 -1 -26.50 112.00 997 -26.90 112.90 TC -26.91 112.87 1 -26.03 110.97 TC 36 995 10 173
1963 SI WA 11:00:00 TS -26.73 112.08 127 127 P_____P__PO_P_ SH191963 -27.10 112.96 -1 -26.67 112.00 997 -27.10 112.96 TC -27.10 112.90 1 -26.17 110.93 TC 35 995 10 0
1963 SI WA 12:00:00 TS -26.90 112.08 136 136 O_____P__OP_O_ jtwc_sh SH191963 -27.30 113.00 -1 -26.83 112.00 997 -27.30 113.00 TC -27.28 112.90 1 -26.30 110.90 TC 35 996 10 187
1963 SI WA 15:00:00 TS -27.40 111.99 176 176 P_____P__PP_P_ SH191963 -27.90 112.86 -1 -27.33 112.00 997 -27.90 112.86 TC -27.82 112.79 1 -26.65 110.80 TC 35 996 10 191
1963 SI WA 18:00:00 TS -27.85 111.86 212 212 O_____P__OP_O_ jtwc_sh SH191963 -28.40 112.60 -1 -27.83 112.00 997 -28.40 112.60 TC -28.31 112.61 1 -27.00 110.70 TC 35 997 9 194
1963 SI WA 19:00:00 TS -27.99 111.82 997 bom 226 226 P_____O__PP_P_ SH191963 -28.53 112.54 -1 -28.00 112.00 997 -28.53 112.54 TC -28.46 112.55 1 -27.14 110.67 TC 35 997 8 194
1963 SI WA 21:00:00 TS -28.24 111.75 229 229 P_____P__PP_P_ SH191963 -28.72 112.43 -1 -28.35 112.00 997 -28.72 112.43 TC -28.71 112.41 1 -27.41 110.60 TC 35 997 8 194
1963 SI WA 22:00:00 TS -28.35 111.72 997 bom 244 244 P_____O__PP_P_ SH191963 -28.80 112.38 -1 -28.50 112.00 997 -28.80 112.38 TC -28.81 112.35 1 -27.55 110.57 TC 35 997 7 195
1963 SI WA 23:00:00 TS -28.45 111.69 247 247 P_____P__PO_P_ SH191963 -28.86 112.34 -1 -28.64 112.00 997 -28.86 112.34 TC -28.90 112.30 1 -27.68 110.53 TC 35 997 6 193
1963 SI WA 1963-01-29 00:00:00 TS -28.54 111.67 247 247 O_____P__OP_O_ jtwc_sh SH191963 -28.90 112.30 -1 -28.75 112.00 997 -28.90 112.30 TC -28.97 112.27 1 -27.80 110.50 TC 35 997 4 194
1963 SI WA 03:00:00 TS -28.73 111.61 262 262 P_____P__PP_P_ SH191963 -28.99 112.23 -1 -28.97 112.00 997 -28.99 112.23 TC -29.07 112.23 1 -28.09 110.39 TC 35 997 4 194
1963 SI WA 04:00:00 TS -28.77 111.60 997 bom 265 265 P_____O__PP_P_ SH191963 -29.00 112.21 -1 -29.00 112.00 997 -29.00 112.21 TC -29.08 112.22 1 -28.17 110.35 TC 35 997 2 195
1963 SI WA 06:00:00 TS -28.83 111.58 265 265 O_____P__OP_O_ jtwc_sh SH191963 -29.00 112.20 -1 -29.01 112.00 997 -29.00 112.20 TC -29.07 112.21 1 -28.30 110.30 TC 35 998 2 0
1963 SI WA 07:00:00 TS -28.85 111.58 998 bom 269 269 P_____O__PP_P_ SH191963 -29.00 112.20 -1 -29.00 112.00 998 -29.00 112.20 TC -29.06 112.21 1 -28.36 110.29 TC 34 998 1 0
1963 SI WA 09:00:00 TS -28.89 111.57 269 269 P_____P__PP_P_ SH191963 -29.00 112.20 -1 -29.00 112.00 998 -29.00 112.20 TC -29.03 112.20 1 -28.46 110.29 TC 32 998 1 210
1963 SI WA 10:00:00 TS -28.90 111.57 999 bom 269 269 P_____O__PP_P_ SH191963 -29.00 112.20 -1 -29.00 112.00 999 -29.00 112.20 TC -29.01 112.20 1 -28.50 110.30 TC 31 998 1 0
1963 SI WA 11:00:00 TS -28.91 111.57 269 269 P_____P__PO_P_ SH191963 -29.00 112.20 -1 -29.00 112.00 999 -29.00 112.20 TC -29.00 112.20 1 -28.55 110.30 TC 30 998 1 0
1963 SI WA 12:00:00 TS -28.93 111.57 269 269 O_____P__OP_O_ jtwc_sh SH191963 -29.00 112.20 -1 -29.00 112.00 999 -29.00 112.20 TC -28.99 112.20 1 -28.60 110.30 TC 30 999 1 227
1963 SI WA 15:00:00 TS -28.98 111.50 281 281 P_____P__PP_P_ SH191963 -29.04 112.16 -1 -29.00 112.00 999 -29.04 112.16 TC -28.99 112.18 1 -28.79 110.26 TC 30 999 2 240
1963 SI WA 16:00:00 TS -29.00 111.43 1000 bom 291 291 P_____O__PP_P_ SH191963 -29.06 112.14 -1 -29.00 112.00 1000 -29.06 112.14 TC -29.00 112.17 1 -28.86 110.24 TC 30 999 3 245
1963 SI WA 18:00:00 TS -29.04 111.35 291 291 O_____P__OP_O_ jtwc_sh SH191963 -29.10 112.10 -1 -29.00 112.00 1000 -29.10 112.10 TC -29.02 112.15 1 -29.00 110.20 TC 30 1000 3 248
1963 SI WA 19:00:00 TS -29.06 111.27 1001 bom 304 304 ______O___P_P_ SH191963 -1 -29.00 112.00 1001 TC -29.03 112.14 1 -29.07 110.18 TC 29 1000 3 241
1963 SI WA 21:00:00 TS -29.11 111.21 313 313 ______P___P_P_ SH191963 -1 -29.00 112.00 1001 TC -29.07 112.12 1 -29.20 110.15 TC 27 1000 1 0
1963 SI WA 22:00:00 TS -29.13 111.24 1002 bom 313 313 ______O___P_P_ SH191963 -1 -29.00 112.00 1002 TC -29.08 112.11 1 -29.27 110.13 TC 26 1000 1 177
1963 SI WA 23:00:00 TS -29.15 111.23 313 313 ______P___O_P_ SH191963 -1 -29.00 112.00 1002 TC -29.10 112.10 2 -29.33 110.12 TC 25 1000 1 211
1963 SI WA 1963-01-30 00:00:00 TS -29.16 111.22 317 254 ______P_____O_ -1 -29.00 112.00 1002 2 -29.40 110.10 TC 25 1001 21 78
1963 SI WA 01:00:00 NR -29.00 112.00 1003 bom 236 ______O_______ -1 -29.00 112.00 1003 2 TC 42 77